createdAt,value
2019-05-25T00:00:53.584Z,1007.2
2019-05-25T00:02:05.781Z,1007.2
2019-05-25T00:03:17.982Z,1007.2
2019-05-25T00:04:30.178Z,1007.2
2019-05-25T00:05:42.371Z,1007.2
2019-05-25T00:06:54.752Z,1007.2
2019-05-25T00:08:06.831Z,1007.2
2019-05-25T00:09:19.475Z,1007.2
2019-05-25T00:10:31.241Z,1007.2
2019-05-25T00:11:43.440Z,1007.2
2019-05-25T00:12:55.539Z,1007.2
2019-05-25T00:14:07.725Z,1007.2
2019-05-25T00:15:19.995Z,1007.2
2019-05-25T00:16:32.190Z,1007.2
2019-05-25T00:17:44.408Z,1007.2
2019-05-25T00:18:56.675Z,1007.2
2019-05-25T00:20:08.691Z,1007.2
2019-05-25T00:21:21.000Z,1007.2
2019-05-25T00:22:33.092Z,1007.2
2019-05-25T00:23:45.289Z,1007.2
2019-05-25T00:25:00.051Z,1007.2
2019-05-25T00:26:09.789Z,1007.2
2019-05-25T00:27:21.869Z,1007.2
2019-05-25T00:28:34.097Z,1007.2
2019-05-25T00:29:46.343Z,1007.2
2019-05-25T00:30:58.538Z,1007.2
2019-05-25T00:32:10.653Z,1007.2
2019-05-25T00:33:22.839Z,1007.2
2019-05-25T00:34:35.520Z,1007.2
2019-05-25T00:35:47.344Z,1007.3
2019-05-25T00:36:59.527Z,1007.3
2019-05-25T00:38:11.704Z,1007.2
2019-05-25T00:39:23.902Z,1007.3
2019-05-25T00:40:36.057Z,1007.3
2019-05-25T00:41:48.284Z,1007.2
2019-05-25T00:43:00.505Z,1007.3
2019-05-25T00:44:12.593Z,1007.3
2019-05-25T00:45:24.789Z,1007.2
2019-05-25T00:46:37.112Z,1007.2
2019-05-25T00:47:49.281Z,1007.3
2019-05-25T00:49:01.388Z,1007.3
2019-05-25T00:50:13.653Z,1007.3
2019-05-25T00:51:25.894Z,1007.2
2019-05-25T00:52:38.056Z,1007.3
2019-05-25T00:53:55.293Z,1007.2
2019-05-25T00:55:02.513Z,1007.3
2019-05-25T00:56:14.563Z,1007.2
2019-05-25T00:57:26.737Z,1007.2
2019-05-25T00:58:39.035Z,1007.2
2019-05-25T00:59:51.177Z,1007.2
2019-05-25T01:01:03.352Z,1007.2
2019-05-25T01:02:15.598Z,1007.2
2019-05-25T01:03:27.726Z,1007.2
2019-05-25T01:04:39.923Z,1007.2
2019-05-25T01:05:52.119Z,1007.2
2019-05-25T01:07:04.407Z,1007.2
2019-05-25T01:08:16.586Z,1007.2
2019-05-25T01:09:28.688Z,1007.2
2019-05-25T01:10:40.895Z,1007.2
2019-05-25T01:11:53.173Z,1007.2
2019-05-25T01:13:05.272Z,1007.3
2019-05-25T01:14:17.471Z,1007.2
2019-05-25T01:15:29.673Z,1007.2
2019-05-25T01:16:41.864Z,1007.3
2019-05-25T01:17:54.088Z,1007.3
2019-05-25T01:19:06.420Z,1007.3
2019-05-25T01:20:18.451Z,1007.3
2019-05-25T01:21:30.657Z,1007.3
2019-05-25T01:22:42.841Z,1007.3
2019-05-25T01:23:55.035Z,1007.3
2019-05-25T01:25:07.302Z,1007.3
2019-05-25T01:26:19.427Z,1007.3
2019-05-25T01:27:31.723Z,1007.3
2019-05-25T01:28:43.815Z,1007.3
2019-05-25T01:29:56.006Z,1007.3
2019-05-25T01:31:08.306Z,1007.4
2019-05-25T01:32:20.592Z,1007.3
2019-05-25T01:33:32.617Z,1007.4
2019-05-25T01:34:44.884Z,1007.3
2019-05-25T01:35:56.993Z,1007.3
2019-05-25T01:37:09.251Z,1007.3
2019-05-25T01:38:21.463Z,1007.3
2019-05-25T01:39:33.601Z,1007.3
2019-05-25T01:40:45.769Z,1007.3
2019-05-25T01:41:57.967Z,1007.3
2019-05-25T01:43:10.343Z,1007.3
2019-05-25T01:44:22.380Z,1007.3
2019-05-25T01:45:34.587Z,1007.2
2019-05-25T01:46:46.771Z,1007.2
2019-05-25T01:47:58.933Z,1007.2
2019-05-25T01:49:11.230Z,1007.2
2019-05-25T01:50:23.463Z,1007.2
2019-05-25T01:51:35.526Z,1007.2
2019-05-25T01:52:47.716Z,1007.2
2019-05-25T01:53:59.997Z,1007.2
2019-05-25T01:55:12.199Z,1007.2
2019-05-25T01:56:24.423Z,1007.1
2019-05-25T01:57:36.520Z,1007.2
2019-05-25T01:58:48.965Z,1007.2
2019-05-25T02:00:02.333Z,1007.2
2019-05-25T02:01:13.083Z,1007.2
2019-05-25T02:02:25.279Z,1007.2
2019-05-25T02:03:38.436Z,1007.2
2019-05-25T02:04:51.137Z,1007.2
2019-05-25T02:06:01.962Z,1007.2
2019-05-25T02:07:14.213Z,1007.2
2019-05-25T02:08:26.255Z,1007.2
2019-05-25T02:09:38.545Z,1007.2
2019-05-25T02:10:50.657Z,1007.2
2019-05-25T02:12:02.839Z,1007.3
2019-05-25T02:13:15.041Z,1007.3
2019-05-25T02:14:27.325Z,1007.3
2019-05-25T02:15:39.616Z,1007.3
2019-05-25T02:16:51.624Z,1007.2
2019-05-25T02:18:03.916Z,1007.2
2019-05-25T02:19:16.190Z,1007.3
2019-05-25T02:20:28.220Z,1007.3
2019-05-25T02:21:40.427Z,1007.3
2019-05-25T02:22:52.635Z,1007.4
2019-05-25T02:24:04.838Z,1007.3
2019-05-25T02:25:17.123Z,1007.3
2019-05-25T02:26:29.269Z,1007.3
2019-05-25T02:27:41.457Z,1007.3
2019-05-25T02:28:53.611Z,1007.3
2019-05-25T02:30:05.784Z,1007.3
2019-05-25T02:31:18.055Z,1007.3
2019-05-25T02:32:30.165Z,1007.4
2019-05-25T02:33:42.405Z,1007.3
2019-05-25T02:34:54.557Z,1007.3
2019-05-25T02:36:06.854Z,1007.4
2019-05-25T02:37:18.984Z,1007.4
2019-05-25T02:38:31.141Z,1007.4
2019-05-25T02:39:43.360Z,1007.4
2019-05-25T02:40:55.533Z,1007.4
2019-05-25T02:42:07.820Z,1007.4
2019-05-25T02:43:19.919Z,1007.4
2019-05-25T02:44:32.163Z,1007.4
2019-05-25T02:45:44.316Z,1007.4
2019-05-25T02:46:56.514Z,1007.4
2019-05-25T02:48:08.697Z,1007.4
2019-05-25T02:49:21.064Z,1007.4
2019-05-25T02:50:34.326Z,1007.4
2019-05-25T02:51:45.299Z,1007.4
2019-05-25T02:52:57.564Z,1007.4
2019-05-25T02:54:09.701Z,1007.6
2019-05-25T02:55:22.061Z,1007.6
2019-05-25T02:56:34.178Z,1007.6
2019-05-25T02:57:46.356Z,1007.6
2019-05-25T02:58:58.541Z,1007.5
2019-05-25T03:00:10.739Z,1007.5
2019-05-25T03:01:22.960Z,1007.5
2019-05-25T03:02:35.141Z,1007.6
2019-05-25T03:03:47.239Z,1007.6
2019-05-25T03:04:59.447Z,1007.6
2019-05-25T03:06:12.784Z,1007.6
2019-05-25T03:07:24.004Z,1007.6
2019-05-25T03:08:36.179Z,1007.6
2019-05-25T03:09:48.231Z,1007.6
2019-05-25T03:11:00.399Z,1007.6
2019-05-25T03:12:12.600Z,1007.6
2019-05-25T03:13:24.992Z,1007.6
2019-05-25T03:14:36.978Z,1007.6
2019-05-25T03:15:49.308Z,1007.6
2019-05-25T03:17:01.472Z,1007.6
2019-05-25T03:18:13.638Z,1007.6
2019-05-25T03:19:25.850Z,1007.7
2019-05-25T03:20:38.909Z,1007.6
2019-05-25T03:21:50.145Z,1007.6
2019-05-25T03:23:02.446Z,1007.7
2019-05-25T03:24:14.551Z,1007.6
2019-05-25T03:25:28.349Z,1007.6
2019-05-25T03:26:38.925Z,1007.6
2019-05-25T03:27:51.166Z,1007.6
2019-05-25T03:29:03.425Z,1007.6
2019-05-25T03:30:15.519Z,1007.6
2019-05-25T03:31:27.787Z,1007.6
2019-05-25T03:32:39.989Z,1007.6
2019-05-25T03:33:52.856Z,1007.6
2019-05-25T03:35:04.287Z,1007.6
2019-05-25T03:36:16.552Z,1007.6
2019-05-25T03:37:28.725Z,1007.6
2019-05-25T03:38:40.897Z,1007.6
2019-05-25T03:39:53.079Z,1007.6
2019-05-25T03:41:05.251Z,1007.6
2019-05-25T03:42:17.435Z,1007.7
2019-05-25T03:43:29.724Z,1007.7
2019-05-25T03:44:41.929Z,1007.7
2019-05-25T03:45:54.032Z,1007.7
2019-05-25T03:47:06.215Z,1007.7
2019-05-25T03:48:20.503Z,1007.7
2019-05-25T03:49:30.600Z,1007.8
2019-05-25T03:50:42.789Z,1007.8
2019-05-25T03:51:54.988Z,1007.8
2019-05-25T03:53:07.333Z,1007.8
2019-05-25T03:54:19.375Z,1007.8
2019-05-25T03:55:31.667Z,1007.9
2019-05-25T03:56:43.865Z,1007.8
2019-05-25T03:57:55.962Z,1007.9
2019-05-25T03:59:08.160Z,1007.9
2019-05-25T04:00:20.354Z,1007.9
2019-05-25T04:01:32.546Z,1007.9
2019-05-25T04:02:44.788Z,1008
2019-05-25T04:03:57.044Z,1008
2019-05-25T04:05:09.129Z,1008
2019-05-25T04:06:21.317Z,1008
2019-05-25T04:07:33.620Z,1008
2019-05-25T04:08:45.802Z,1008
2019-05-25T04:09:57.991Z,1008
2019-05-25T04:11:10.103Z,1008
2019-05-25T04:12:22.317Z,1008.1
2019-05-25T04:13:34.578Z,1008
2019-05-25T04:14:46.696Z,1008
2019-05-25T04:15:58.966Z,1008
2019-05-25T04:17:11.074Z,1008
2019-05-25T04:18:23.267Z,1008
2019-05-25T04:19:35.621Z,1008.1
2019-05-25T04:20:47.644Z,1008.1
2019-05-25T04:21:59.853Z,1008.1
2019-05-25T04:23:12.043Z,1008.1
2019-05-25T04:24:24.318Z,1008.1
2019-05-25T04:25:36.423Z,1008.2
2019-05-25T04:26:48.615Z,1008.2
2019-05-25T04:28:00.815Z,1008.2
2019-05-25T04:29:13.009Z,1008.2
2019-05-25T04:30:25.276Z,1008.2
2019-05-25T04:31:37.581Z,1008.2
2019-05-25T04:32:49.624Z,1008.2
2019-05-25T04:34:01.779Z,1008.2
2019-05-25T04:35:14.065Z,1008.2
2019-05-25T04:36:26.247Z,1008.3
2019-05-25T04:37:38.453Z,1008.3
2019-05-25T04:38:50.684Z,1008.3
2019-05-25T04:40:02.837Z,1008.3
2019-05-25T04:41:15.045Z,1008.3
2019-05-25T04:42:27.133Z,1008.3
2019-05-25T04:43:39.436Z,1008.3
2019-05-25T04:44:51.617Z,1008.4
2019-05-25T04:46:03.718Z,1008.3
2019-05-25T04:47:15.933Z,1008.4
2019-05-25T04:48:28.115Z,1008.4
2019-05-25T04:49:40.460Z,1008.4
2019-05-25T04:50:52.529Z,1008.4
2019-05-25T04:52:04.770Z,1008.4
2019-05-25T04:53:16.879Z,1008.4
2019-05-25T04:54:29.085Z,1008.5
2019-05-25T04:55:41.356Z,1008.5
2019-05-25T04:56:53.547Z,1008.5
2019-05-25T04:58:05.745Z,1008.5
2019-05-25T04:59:18.043Z,1008.5
2019-05-25T05:00:30.045Z,1008.4
2019-05-25T05:01:42.235Z,1008.5
2019-05-25T05:02:54.538Z,1008.5
2019-05-25T05:04:06.651Z,1008.5
2019-05-25T05:05:18.934Z,1008.4
2019-05-25T05:06:31.140Z,1008.4
2019-05-25T05:07:43.301Z,1008.4
2019-05-25T05:08:55.603Z,1008.4
2019-05-25T05:10:07.607Z,1008.4
2019-05-25T05:11:19.878Z,1008.4
2019-05-25T05:12:32.003Z,1008.5
2019-05-25T05:13:44.281Z,1008.4
2019-05-25T05:14:56.431Z,1008.4
2019-05-25T05:16:08.749Z,1008.5
2019-05-25T05:17:20.763Z,1008.5
2019-05-25T05:18:33.048Z,1008.5
2019-05-25T05:19:45.235Z,1008.5
2019-05-25T05:20:57.516Z,1008.5
2019-05-25T05:22:09.532Z,1008.5
2019-05-25T05:23:21.741Z,1008.5
2019-05-25T05:24:33.929Z,1008.4
2019-05-25T05:25:46.217Z,1008.4
2019-05-25T05:26:58.306Z,1008.4
2019-05-25T05:28:10.622Z,1008.5
2019-05-25T05:29:22.745Z,1008.5
2019-05-25T05:30:34.961Z,1008.5
2019-05-25T05:31:47.222Z,1008.4
2019-05-25T05:32:59.273Z,1008.4
2019-05-25T05:34:11.529Z,1008.4
2019-05-25T05:35:23.745Z,1008.4
2019-05-25T05:36:35.871Z,1008.5
2019-05-25T05:37:48.143Z,1008.5
2019-05-25T05:39:00.367Z,1008.5
2019-05-25T05:40:12.631Z,1008.5
2019-05-25T05:41:24.638Z,1008.5
2019-05-25T05:42:36.925Z,1008.5
2019-05-25T05:43:49.134Z,1008.5
2019-05-25T05:45:01.313Z,1008.5
2019-05-25T05:46:13.414Z,1008.5
2019-05-25T05:47:25.608Z,1008.6
2019-05-25T05:48:37.815Z,1008.5
2019-05-25T05:49:50.155Z,1008.5
2019-05-25T05:51:02.194Z,1008.5
2019-05-25T05:52:14.458Z,1008.5
2019-05-25T05:53:26.568Z,1008.5
2019-05-25T05:54:38.784Z,1008.5
2019-05-25T05:55:51.230Z,1008.5
2019-05-25T05:57:03.321Z,1008.6
2019-05-25T05:58:15.428Z,1008.5
2019-05-25T05:59:27.540Z,1008.6
2019-05-25T06:00:39.815Z,1008.6
2019-05-25T06:01:51.920Z,1008.6
2019-05-25T06:03:06.643Z,1008.6
2019-05-25T06:04:16.392Z,1008.6
2019-05-25T06:05:28.607Z,1008.6
2019-05-25T06:06:40.709Z,1008.6
2019-05-25T06:07:53.074Z,1008.6
2019-05-25T06:09:05.118Z,1008.7
2019-05-25T06:10:17.281Z,1008.7
2019-05-25T06:11:29.566Z,1008.6
2019-05-25T06:12:41.672Z,1008.6
2019-05-25T06:13:53.944Z,1008.7
2019-05-25T06:15:06.219Z,1008.6
2019-05-25T06:16:18.348Z,1008.6
2019-05-25T06:17:30.448Z,1008.7
2019-05-25T06:18:42.820Z,1008.7
2019-05-25T06:19:54.926Z,1008.7
2019-05-25T06:21:07.124Z,1008.8
2019-05-25T06:22:19.326Z,1008.9
2019-05-25T06:23:31.576Z,1008.9
2019-05-25T06:24:43.654Z,1008.9
2019-05-25T06:25:55.954Z,1008.9
2019-05-25T06:27:09.448Z,1008.9
2019-05-25T06:28:20.286Z,1008.9
2019-05-25T06:29:32.454Z,1008.9
2019-05-25T06:30:49.023Z,1009
2019-05-25T06:33:09.044Z,1008.9
2019-05-25T06:34:21.396Z,1009
2019-05-25T06:35:33.421Z,1009
2019-05-25T06:36:45.541Z,1009
2019-05-25T06:37:57.828Z,1009
2019-05-25T06:39:09.919Z,1009
2019-05-25T06:40:22.239Z,1009
2019-05-25T06:41:34.320Z,1009
2019-05-25T06:42:46.511Z,1009
2019-05-25T06:43:58.784Z,1009.1
2019-05-25T06:45:11.007Z,1009.1
2019-05-25T06:46:23.085Z,1009.1
2019-05-25T06:47:35.356Z,1009.1
2019-05-25T06:48:47.572Z,1008.9
2019-05-25T06:49:59.750Z,1008.9
2019-05-25T06:51:11.844Z,1009.1
2019-05-25T06:52:24.166Z,1009.1
2019-05-25T06:53:36.279Z,1009.1
2019-05-25T06:54:48.582Z,1009.1
2019-05-25T06:56:00.721Z,1009.1
2019-05-25T06:57:12.813Z,1009
2019-05-25T06:58:25.009Z,1009.1
2019-05-25T06:59:37.403Z,1009.3
2019-05-25T07:00:50.694Z,1009.1
2019-05-25T07:02:01.655Z,1009.3
2019-05-25T07:03:13.857Z,1008.9
2019-05-25T07:04:26.065Z,1009
2019-05-25T07:05:38.166Z,1008.9
2019-05-25T07:06:50.460Z,1009
2019-05-25T07:08:02.725Z,1009.2
2019-05-25T07:09:14.829Z,1009.2
2019-05-25T07:10:26.928Z,1008.9
2019-05-25T07:11:39.268Z,1008.8
2019-05-25T07:12:51.318Z,1008.9
2019-05-25T07:14:03.532Z,1009.2
2019-05-25T07:15:15.788Z,1009.2
2019-05-25T07:16:28.066Z,1008.8
2019-05-25T07:17:40.097Z,1008.9
2019-05-25T07:18:52.425Z,1009.2
2019-05-25T07:20:04.653Z,1008.8
2019-05-25T07:21:16.677Z,1008.8
2019-05-25T07:22:28.869Z,1008.9
2019-05-25T07:23:41.237Z,1009.3
2019-05-25T07:24:53.261Z,1009.3
2019-05-25T07:26:05.530Z,1009.3
2019-05-25T07:27:17.763Z,1009.3
2019-05-25T07:28:29.836Z,1009.3
2019-05-25T07:29:42.035Z,1008.9
2019-05-25T07:30:54.318Z,1008.8
2019-05-25T07:32:06.617Z,1008.8
2019-05-25T07:33:18.745Z,1008.8
2019-05-25T07:34:30.810Z,1008.9
2019-05-25T07:35:43.067Z,1009.3
2019-05-25T07:36:55.282Z,1009.3
2019-05-25T07:38:07.477Z,1009.2
2019-05-25T07:39:19.575Z,1009.2
2019-05-25T07:40:31.812Z,1008.9
2019-05-25T07:41:44.043Z,1008.9
2019-05-25T07:42:56.247Z,1009
2019-05-25T07:44:08.434Z,1009.1
2019-05-25T07:45:20.622Z,1009.3
2019-05-25T07:46:32.719Z,1009.3
2019-05-25T07:47:45.009Z,1009.2
2019-05-25T07:48:57.268Z,1009.1
2019-05-25T07:50:09.393Z,1009.1
2019-05-25T07:51:21.605Z,1009.1
2019-05-25T07:52:33.784Z,1009.2
2019-05-25T07:53:45.963Z,1009.1
2019-05-25T07:54:59.498Z,1009.1
2019-05-25T07:56:10.368Z,1009.2
2019-05-25T07:57:22.456Z,1009.5
2019-05-25T07:58:34.664Z,1009.5
2019-05-25T07:59:46.940Z,1009.5
2019-05-25T08:00:59.124Z,1009.4
2019-05-25T08:02:11.286Z,1009.1
2019-05-25T08:03:23.427Z,1009
2019-05-25T08:04:35.712Z,1009.1
2019-05-25T08:05:47.814Z,1009.2
2019-05-25T08:07:00.190Z,1009.2
2019-05-25T08:08:12.290Z,1009.2
2019-05-25T08:09:24.476Z,1009.1
2019-05-25T08:10:36.665Z,1009.1
2019-05-25T08:11:48.829Z,1009.1
2019-05-25T08:13:00.991Z,1009.1
2019-05-25T08:14:13.263Z,1009.2
2019-05-25T08:15:25.356Z,1009.3
2019-05-25T08:16:37.548Z,1009.4
2019-05-25T08:17:49.752Z,1009.5
2019-05-25T08:19:02.034Z,1009.5
2019-05-25T08:20:14.227Z,1009.6
2019-05-25T08:21:26.421Z,1009.5
2019-05-25T08:22:38.529Z,1009.4
2019-05-25T08:23:50.808Z,1009.4
2019-05-25T08:25:02.901Z,1009.2
2019-05-25T08:26:15.229Z,1009.2
2019-05-25T08:27:27.284Z,1009.2
2019-05-25T08:28:39.600Z,1009.2
2019-05-25T08:29:51.690Z,1009.1
2019-05-25T08:31:04.687Z,1009.2
2019-05-25T08:32:16.160Z,1009.2
2019-05-25T08:33:28.344Z,1009.2
2019-05-25T08:34:40.445Z,1009.3
2019-05-25T08:35:52.734Z,1009.2
2019-05-25T08:37:05.581Z,1009.1
2019-05-25T08:38:17.197Z,1009.4
2019-05-25T08:39:29.289Z,1009.5
2019-05-25T08:40:41.498Z,1009.6
2019-05-25T08:41:53.726Z,1009.6
2019-05-25T08:43:05.859Z,1009.6
2019-05-25T08:44:22.380Z,1009.6
2019-05-25T08:45:30.186Z,1009.6
2019-05-25T08:46:42.378Z,1009.7
2019-05-25T08:47:54.576Z,1009.7
2019-05-25T08:49:06.807Z,1009.5
2019-05-25T08:50:19.032Z,1009.4
2019-05-25T08:51:31.259Z,1009.3
2019-05-25T08:52:43.352Z,1009.2
2019-05-25T08:53:55.613Z,1009.3
2019-05-25T08:55:07.757Z,1009.3
2019-05-25T08:56:20.042Z,1009.8
2019-05-25T08:57:32.199Z,1009.7
2019-05-25T08:58:44.344Z,1009.3
2019-05-25T08:59:56.600Z,1009.2
2019-05-25T09:01:08.810Z,1009.2
2019-05-25T09:02:21.074Z,1009.7
2019-05-25T09:03:33.115Z,1009.7
2019-05-25T09:04:45.392Z,1009.5
2019-05-25T09:05:57.559Z,1009.6
2019-05-25T09:07:09.656Z,1009.6
2019-05-25T09:08:21.946Z,1009.7
2019-05-25T09:09:35.418Z,1009.3
2019-05-25T09:10:49.152Z,1009.6
2019-05-25T09:11:58.539Z,1009.2
2019-05-25T09:13:10.630Z,1009.3
2019-05-25T09:14:22.839Z,1009.7
2019-05-25T09:15:35.223Z,1009.7
2019-05-25T09:16:47.393Z,1009.8
2019-05-25T09:17:59.405Z,1009.5
2019-05-25T09:19:11.712Z,1009.6
2019-05-25T09:20:23.970Z,1009.9
2019-05-25T09:21:36.125Z,1009.8
2019-05-25T09:22:50.693Z,1009.8
2019-05-25T09:24:00.512Z,1009.8
2019-05-25T09:25:12.574Z,1009.9
2019-05-25T09:26:24.853Z,1009.9
2019-05-25T09:27:37.048Z,1009.9
2019-05-25T09:28:49.263Z,1009.9
2019-05-25T09:30:01.339Z,1009.9
2019-05-25T09:31:13.717Z,1009.9
2019-05-25T09:32:25.980Z,1009.8
2019-05-25T09:33:38.020Z,1009.7
2019-05-25T09:34:50.136Z,1009.9
2019-05-25T09:36:02.401Z,1009.9
2019-05-25T09:37:14.589Z,1009.6
2019-05-25T09:38:26.736Z,1009.7
2019-05-25T09:39:38.986Z,1009.4
2019-05-25T09:40:51.231Z,1009.6
2019-05-25T09:42:03.288Z,1009.4
2019-05-25T09:43:15.472Z,1009.8
2019-05-25T09:44:27.760Z,1010
2019-05-25T09:45:39.860Z,1009.9
2019-05-25T09:46:52.138Z,1010
2019-05-25T09:48:04.517Z,1010
2019-05-25T09:49:16.474Z,1010
2019-05-25T09:50:28.725Z,1010
2019-05-25T09:51:40.857Z,1009.9
2019-05-25T09:52:53.111Z,1009.8
2019-05-25T09:54:05.225Z,1009.9
2019-05-25T09:55:17.506Z,1009.6
2019-05-25T09:56:29.839Z,1009.6
2019-05-25T09:57:41.812Z,1009.5
2019-05-25T09:58:54.091Z,1009.4
2019-05-25T10:00:06.344Z,1009.5
2019-05-25T10:01:18.461Z,1009.6
2019-05-25T10:02:30.696Z,1010
2019-05-25T10:03:42.865Z,1010
2019-05-25T10:04:54.978Z,1009.8
2019-05-25T10:06:07.230Z,1009.8
2019-05-25T10:07:19.453Z,1009.7
2019-05-25T10:08:31.638Z,1009.8
2019-05-25T10:09:43.852Z,1009.8
2019-05-25T10:10:55.983Z,1009.7
2019-05-25T10:12:08.238Z,1009.4
2019-05-25T10:13:20.333Z,1009.4
2019-05-25T10:14:32.616Z,1009.5
2019-05-25T10:15:44.712Z,1009.6
2019-05-25T10:16:57.027Z,1009.6
2019-05-25T10:18:09.221Z,1009.7
2019-05-25T10:19:21.338Z,1009.7
2019-05-25T10:20:33.597Z,1009.6
2019-05-25T10:21:45.680Z,1009.7
2019-05-25T10:22:58.011Z,1009.8
2019-05-25T10:24:10.193Z,1009.7
2019-05-25T10:25:22.274Z,1009.6
2019-05-25T10:26:34.555Z,1009.7
2019-05-25T10:27:46.659Z,1009.6
2019-05-25T10:28:58.845Z,1009.7
2019-05-25T10:30:11.065Z,1009.6
2019-05-25T10:31:23.345Z,1009.7
2019-05-25T10:32:35.546Z,1009.7
2019-05-25T10:33:47.652Z,1009.7
2019-05-25T10:34:59.825Z,1009.7
2019-05-25T10:36:12.205Z,1009.6
2019-05-25T10:37:24.202Z,1009.7
2019-05-25T10:38:36.573Z,1009.6
2019-05-25T10:39:48.604Z,1009.6
2019-05-25T10:41:00.788Z,1009.6
2019-05-25T10:42:13.057Z,1009.6
2019-05-25T10:43:25.177Z,1009.6
2019-05-25T10:44:37.482Z,1009.7
2019-05-25T10:45:52.892Z,1009.7
2019-05-25T10:47:01.764Z,1009.8
2019-05-25T10:48:13.974Z,1009.7
2019-05-25T10:49:26.174Z,1009.7
2019-05-25T10:50:38.510Z,1009.7
2019-05-25T10:51:50.579Z,1009.7
2019-05-25T10:53:02.817Z,1009.8
2019-05-25T10:54:14.927Z,1009.8
2019-05-25T10:55:29.474Z,1009.8
2019-05-25T10:56:39.426Z,1009.7
2019-05-25T10:57:51.604Z,1009.7
2019-05-25T10:59:03.710Z,1009.7
2019-05-25T11:00:16.078Z,1009.8
2019-05-25T11:01:28.098Z,1009.7
2019-05-25T11:02:40.734Z,1009.7
2019-05-25T11:03:52.488Z,1009.6
2019-05-25T11:05:06.062Z,1009.7
2019-05-25T11:06:16.972Z,1009.7
2019-05-25T11:07:29.080Z,1009.5
2019-05-25T11:08:41.372Z,1009.4
2019-05-25T11:09:53.465Z,1009.7
2019-05-25T11:11:05.661Z,1009.7
2019-05-25T11:12:17.859Z,1009.8
2019-05-25T11:13:30.103Z,1009.7
2019-05-25T11:14:42.252Z,1009.1
2019-05-25T11:15:54.524Z,1009.7
2019-05-25T11:17:06.653Z,1009.5
2019-05-25T11:18:18.917Z,1009.3
2019-05-25T11:19:31.023Z,1009.7
2019-05-25T11:20:43.306Z,1009.7
2019-05-25T11:21:55.598Z,1009.8
2019-05-25T11:23:07.598Z,1009.7
2019-05-25T11:24:19.977Z,1009.7
2019-05-25T11:25:31.992Z,1009.7
2019-05-25T11:26:44.371Z,1009.8
2019-05-25T11:27:56.382Z,1009.7
2019-05-25T11:29:08.585Z,1009.8
2019-05-25T11:30:20.788Z,1009.7
2019-05-25T11:31:33.170Z,1009.7
2019-05-25T11:32:45.275Z,1009.6
2019-05-25T11:33:57.441Z,1009.3
2019-05-25T11:35:09.562Z,1009.1
2019-05-25T11:36:21.744Z,1009
2019-05-25T11:37:33.947Z,1009.1
2019-05-25T11:38:46.127Z,1009
2019-05-25T11:39:58.408Z,1009
2019-05-25T11:41:10.517Z,1009
2019-05-25T11:42:22.787Z,1008.9
2019-05-25T11:43:34.975Z,1008.9
2019-05-25T11:44:47.272Z,1008.9
2019-05-25T11:45:59.299Z,1008.9
2019-05-25T11:47:11.485Z,1008.9
2019-05-25T11:48:23.685Z,1008.9
2019-05-25T11:49:35.974Z,1008.9
2019-05-25T11:50:48.079Z,1008.9
2019-05-25T11:52:00.723Z,1008.8
2019-05-25T11:53:12.559Z,1008.9
2019-05-25T11:54:24.685Z,1008.8
2019-05-25T11:55:36.969Z,1008.9
2019-05-25T11:56:49.134Z,1008.8
2019-05-25T11:58:01.234Z,1008.8
2019-05-25T11:59:13.441Z,1008.9
2019-05-25T12:00:25.737Z,1008.8
2019-05-25T12:01:37.809Z,1008.7
2019-05-25T12:02:51.591Z,1008.8
2019-05-25T12:04:02.197Z,1008.7
2019-05-25T12:05:14.397Z,1008.8
2019-05-25T12:06:26.581Z,1008.8
2019-05-25T12:07:38.788Z,1008.7
2019-05-25T12:08:51.121Z,1008.7
2019-05-25T12:10:03.235Z,1008.7
2019-05-25T12:11:15.366Z,1008.8
2019-05-25T12:12:27.641Z,1008.7
2019-05-25T12:13:39.752Z,1008.7
2019-05-25T12:14:52.043Z,1008.8
2019-05-25T12:16:04.148Z,1008.8
2019-05-25T12:17:16.349Z,1008.7
2019-05-25T12:18:28.603Z,1008.8
2019-05-25T12:19:40.916Z,1008.8
2019-05-25T12:20:53.072Z,1008.7
2019-05-25T12:22:05.166Z,1008.8
2019-05-25T12:23:17.385Z,1008.6
2019-05-25T12:24:29.694Z,1008.7
2019-05-25T12:25:41.670Z,1008.7
2019-05-25T12:26:53.887Z,1008.7
2019-05-25T12:28:06.171Z,1008.7
2019-05-25T12:29:18.372Z,1008.7
2019-05-25T12:30:30.572Z,1008.6
2019-05-25T12:31:42.725Z,1008.6
2019-05-25T12:32:54.930Z,1008.5
2019-05-25T12:34:07.091Z,1008.6
2019-05-25T12:35:19.218Z,1008.6
2019-05-25T12:36:31.411Z,1008.5
2019-05-25T12:37:43.611Z,1008.5
2019-05-25T12:38:55.892Z,1008.5
2019-05-25T12:40:08.015Z,1008.5
2019-05-25T12:41:22.560Z,1008.4
2019-05-25T12:42:36.556Z,1008.5
2019-05-25T12:43:44.580Z,1008.5
2019-05-25T12:44:56.963Z,1008.4
2019-05-25T12:46:09.053Z,1008.4
2019-05-25T12:47:21.343Z,1008.4
2019-05-25T12:48:33.498Z,1008.4
2019-05-25T12:49:45.577Z,1008.4
2019-05-25T12:50:57.851Z,1008.3
2019-05-25T12:52:09.957Z,1008.4
2019-05-25T12:53:22.431Z,1008.4
2019-05-25T12:54:34.440Z,1008.4
2019-05-25T12:55:46.585Z,1008.4
2019-05-25T12:56:58.901Z,1008.3
2019-05-25T12:58:10.916Z,1008.3
2019-05-25T12:59:23.110Z,1008.3
2019-05-25T13:00:35.305Z,1008.4
2019-05-25T13:01:47.574Z,1008.4
2019-05-25T13:02:59.794Z,1008.3
2019-05-25T13:04:11.891Z,1008.4
2019-05-25T13:05:24.118Z,1008.4
2019-05-25T13:06:36.345Z,1008.4
2019-05-25T13:07:48.478Z,1008.3
2019-05-25T13:09:00.793Z,1008.2
2019-05-25T13:10:13.037Z,1008.3
2019-05-25T13:11:25.062Z,1008.2
2019-05-25T13:12:37.374Z,1008.3
2019-05-25T13:13:49.469Z,1008.3
2019-05-25T13:15:01.743Z,1008.3
2019-05-25T13:16:13.884Z,1008.3
2019-05-25T13:17:26.133Z,1008.3
2019-05-25T13:18:38.242Z,1008.4
2019-05-25T13:19:50.438Z,1008.3
2019-05-25T13:21:02.723Z,1008.3
2019-05-25T13:22:14.834Z,1008.3
2019-05-25T13:23:27.014Z,1008.3
2019-05-25T13:24:39.403Z,1008.3
2019-05-25T13:25:51.402Z,1008.3
2019-05-25T13:27:03.664Z,1008.3
2019-05-25T13:28:15.893Z,1008.2
2019-05-25T13:29:27.993Z,1008.2
2019-05-25T13:30:40.226Z,1008.2
2019-05-25T13:31:52.401Z,1008.4
2019-05-25T13:33:04.805Z,1008.3
2019-05-25T13:34:16.773Z,1008.4
2019-05-25T13:35:28.954Z,1008.3
2019-05-25T13:36:41.222Z,1008.2
2019-05-25T13:37:53.441Z,1008.3
2019-05-25T13:39:05.632Z,1008.3
2019-05-25T13:40:17.751Z,1008.3
2019-05-25T13:41:30.027Z,1008.3
2019-05-25T13:42:42.142Z,1008.3
2019-05-25T13:43:54.448Z,1008.3
2019-05-25T13:45:06.737Z,1008.3
2019-05-25T13:46:18.824Z,1008.3
2019-05-25T13:47:30.994Z,1008.3
2019-05-25T13:48:43.182Z,1008.3
2019-05-25T13:49:55.305Z,1008.3
2019-05-25T13:51:07.502Z,1008.3
2019-05-25T13:52:19.716Z,1008.3
2019-05-25T13:53:32.021Z,1008.2
2019-05-25T13:54:44.116Z,1008.3
2019-05-25T13:55:56.470Z,1008.3
2019-05-25T13:57:08.570Z,1008.3
2019-05-25T13:58:20.672Z,1008.2
2019-05-25T13:59:32.894Z,1008.2
2019-05-25T14:00:45.247Z,1008.2
2019-05-25T14:01:57.269Z,1008.2
2019-05-25T14:03:09.457Z,1008.2
2019-05-25T14:04:21.728Z,1008.1
2019-05-25T14:05:33.849Z,1008.1
2019-05-25T14:06:46.117Z,1008.1
2019-05-25T14:07:58.245Z,1008.1
2019-05-25T14:09:10.583Z,1008.2
2019-05-25T14:10:23.219Z,1008.1
2019-05-25T14:11:34.872Z,1008.2
2019-05-25T14:12:47.027Z,1008.1
2019-05-25T14:13:59.220Z,1008.1
2019-05-25T14:15:11.543Z,1008.1
2019-05-25T14:16:23.604Z,1008.2
2019-05-25T14:17:36.034Z,1008.1
2019-05-25T14:18:47.997Z,1008.1
2019-05-25T14:20:00.293Z,1008.1
2019-05-25T14:21:12.480Z,1008.1
2019-05-25T14:22:24.743Z,1008.1
2019-05-25T14:23:36.781Z,1008.1
2019-05-25T14:24:49.069Z,1008.1
2019-05-25T14:26:01.189Z,1008.1
2019-05-25T14:27:13.359Z,1008.1
2019-05-25T14:28:25.572Z,1008.1
2019-05-25T14:29:37.855Z,1008
2019-05-25T14:30:49.946Z,1008
2019-05-25T14:32:02.225Z,1008
2019-05-25T14:33:14.442Z,1008.1
2019-05-25T14:34:26.634Z,1008
2019-05-25T14:35:38.733Z,1008
2019-05-25T14:36:51.072Z,1008
2019-05-25T14:38:03.129Z,1007.9
2019-05-25T14:39:15.315Z,1008
2019-05-25T14:40:27.603Z,1007.9
2019-05-25T14:41:39.724Z,1008
2019-05-25T14:42:51.950Z,1007.9
2019-05-25T14:44:04.195Z,1007.9
2019-05-25T14:45:16.388Z,1007.8
2019-05-25T14:46:28.509Z,1007.9
2019-05-25T14:47:40.704Z,1007.9
2019-05-25T14:48:52.875Z,1007.8
2019-05-25T14:50:05.071Z,1007.9
2019-05-25T14:51:17.342Z,1007.9
2019-05-25T14:52:29.535Z,1007.7
2019-05-25T14:53:41.749Z,1007.8
2019-05-25T14:54:53.896Z,1007.8
2019-05-25T14:56:06.228Z,1007.8
2019-05-25T14:57:18.440Z,1007.8
2019-05-25T14:58:30.445Z,1007.9
2019-05-25T14:59:42.635Z,1007.8
2019-05-25T15:00:54.831Z,1007.9
2019-05-25T15:02:07.134Z,1007.9
2019-05-25T15:03:19.224Z,1007.9
2019-05-25T15:04:31.426Z,1007.9
2019-05-25T15:05:43.757Z,1007.8